sensor_id;sensor_type;location;lat;lon;timestamp;P1;durP1;ratioP1;P2;durP2;ratioP2
22146;SDS011;13074;48.298;14.424;2023-02-18T00:01:28;3.10;;;2.03;;
22146;SDS011;13074;48.298;14.424;2023-02-18T00:03:58;3.57;;;2.07;;
22146;SDS011;13074;48.298;14.424;2023-02-18T00:06:26;2.73;;;2.00;;
22146;SDS011;13074;48.298;14.424;2023-02-18T00:08:54;3.63;;;2.17;;
22146;SDS011;13074;48.298;14.424;2023-02-18T00:11:24;2.60;;;1.70;;
22146;SDS011;13074;48.298;14.424;2023-02-18T00:13:52;3.07;;;2.10;;
22146;SDS011;13074;48.298;14.424;2023-02-18T00:16:21;2.70;;;2.03;;
22146;SDS011;13074;48.298;14.424;2023-02-18T00:18:50;3.27;;;2.00;;
22146;SDS011;13074;48.298;14.424;2023-02-18T00:21:21;3.27;;;2.00;;
22146;SDS011;13074;48.298;14.424;2023-02-18T00:23:49;3.80;;;2.20;;
22146;SDS011;13074;48.298;14.424;2023-02-18T00:26:17;3.53;;;2.03;;
22146;SDS011;13074;48.298;14.424;2023-02-18T00:28:45;4.43;;;2.30;;
22146;SDS011;13074;48.298;14.424;2023-02-18T00:31:14;4.77;;;2.20;;
22146;SDS011;13074;48.298;14.424;2023-02-18T00:33:43;2.73;;;1.97;;
22146;SDS011;13074;48.298;14.424;2023-02-18T00:36:12;5.20;;;2.30;;
22146;SDS011;13074;48.298;14.424;2023-02-18T00:38:44;3.63;;;2.10;;
22146;SDS011;13074;48.298;14.424;2023-02-18T00:41:11;2.20;;;2.00;;
22146;SDS011;13074;48.298;14.424;2023-02-18T00:43:39;5.10;;;2.30;;
22146;SDS011;13074;48.298;14.424;2023-02-18T00:46:06;2.60;;;1.90;;
22146;SDS011;13074;48.298;14.424;2023-02-18T00:48:34;2.93;;;1.80;;
22146;SDS011;13074;48.298;14.424;2023-02-18T00:51:02;3.13;;;2.17;;
22146;SDS011;13074;48.298;14.424;2023-02-18T00:53:30;2.33;;;1.80;;
22146;SDS011;13074;48.298;14.424;2023-02-18T00:55:59;5.97;;;2.50;;
22146;SDS011;13074;48.298;14.424;2023-02-18T00:58:26;2.40;;;2.10;;
22146;SDS011;13074;48.298;14.424;2023-02-18T01:00:54;3.37;;;2.23;;
22146;SDS011;13074;48.298;14.424;2023-02-18T01:03:21;2.60;;;2.13;;
22146;SDS011;13074;48.298;14.424;2023-02-18T01:05:49;2.70;;;2.07;;
22146;SDS011;13074;48.298;14.424;2023-02-18T01:08:17;3.83;;;2.03;;
22146;SDS011;13074;48.298;14.424;2023-02-18T01:10:46;4.80;;;2.13;;
22146;SDS011;13074;48.298;14.424;2023-02-18T01:13:16;2.80;;;2.23;;
22146;SDS011;13074;48.298;14.424;2023-02-18T01:15:43;3.67;;;2.20;;
22146;SDS011;13074;48.298;14.424;2023-02-18T01:18:11;3.63;;;2.67;;
22146;SDS011;13074;48.298;14.424;2023-02-18T01:20:40;3.03;;;2.23;;
22146;SDS011;13074;48.298;14.424;2023-02-18T01:23:08;3.40;;;2.10;;
22146;SDS011;13074;48.298;14.424;2023-02-18T01:25:36;3.87;;;2.33;;
22146;SDS011;13074;48.298;14.424;2023-02-18T01:28:04;3.23;;;2.17;;
22146;SDS011;13074;48.298;14.424;2023-02-18T01:30:33;4.20;;;2.30;;
22146;SDS011;13074;48.298;14.424;2023-02-18T01:33:00;6.03;;;2.50;;
22146;SDS011;13074;48.298;14.424;2023-02-18T01:35:28;5.07;;;2.20;;
22146;SDS011;13074;48.298;14.424;2023-02-18T01:37:55;3.50;;;2.40;;
22146;SDS011;13074;48.298;14.424;2023-02-18T01:40:23;3.50;;;2.40;;
22146;SDS011;13074;48.298;14.424;2023-02-18T01:42:52;5.20;;;2.33;;
22146;SDS011;13074;48.298;14.424;2023-02-18T01:45:35;2.53;;;1.90;;
22146;SDS011;13074;48.298;14.424;2023-02-18T01:48:16;3.40;;;2.27;;
22146;SDS011;13074;48.298;14.424;2023-02-18T01:50:47;7.53;;;2.90;;
22146;SDS011;13074;48.298;14.424;2023-02-18T01:53:17;3.23;;;2.30;;
22146;SDS011;13074;48.298;14.424;2023-02-18T01:55:48;4.27;;;2.17;;
22146;SDS011;13074;48.298;14.424;2023-02-18T01:58:16;2.80;;;2.00;;
22146;SDS011;13074;48.298;14.424;2023-02-18T02:00:45;3.70;;;2.20;;
22146;SDS011;13074;48.298;14.424;2023-02-18T02:03:12;2.93;;;1.93;;
22146;SDS011;13074;48.298;14.424;2023-02-18T02:05:39;4.40;;;2.40;;
22146;SDS011;13074;48.298;14.424;2023-02-18T02:08:07;2.37;;;1.90;;
22146;SDS011;13074;48.298;14.424;2023-02-18T02:10:37;5.90;;;2.07;;
22146;SDS011;13074;48.298;14.424;2023-02-18T02:13:28;4.73;;;2.27;;
22146;SDS011;13074;48.298;14.424;2023-02-18T02:16:11;2.70;;;2.37;;
22146;SDS011;13074;48.298;14.424;2023-02-18T02:18:50;3.17;;;2.20;;
22146;SDS011;13074;48.298;14.424;2023-02-18T02:27:20;3.27;;;1.70;;
22146;SDS011;13074;48.298;14.424;2023-02-18T02:36:04;3.73;;;1.83;;
22146;SDS011;13074;48.298;14.424;2023-02-18T02:38:38;5.33;;;1.70;;
22146;SDS011;13074;48.298;14.424;2023-02-18T02:41:23;4.07;;;1.60;;
22146;SDS011;13074;48.298;14.424;2023-02-18T02:44:01;3.37;;;1.90;;
22146;SDS011;13074;48.298;14.424;2023-02-18T02:46:40;2.40;;;1.60;;
22146;SDS011;13074;48.298;14.424;2023-02-18T02:49:12;2.27;;;1.60;;
22146;SDS011;13074;48.298;14.424;2023-02-18T02:51:48;1.57;;;1.37;;
22146;SDS011;13074;48.298;14.424;2023-02-18T02:54:24;3.00;;;1.50;;
22146;SDS011;13074;48.298;14.424;2023-02-18T02:57:03;2.63;;;1.40;;
22146;SDS011;13074;48.298;14.424;2023-02-18T02:59:33;1.70;;;1.40;;
22146;SDS011;13074;48.298;14.424;2023-02-18T03:02:08;3.20;;;1.60;;
22146;SDS011;13074;48.298;14.424;2023-02-18T03:04:50;3.33;;;1.50;;
22146;SDS011;13074;48.298;14.424;2023-02-18T03:07:38;3.00;;;1.60;;
22146;SDS011;13074;48.298;14.424;2023-02-18T03:10:49;7.07;;;1.80;;
22146;SDS011;13074;48.298;14.424;2023-02-18T03:13:25;3.10;;;1.63;;
22146;SDS011;13074;48.298;14.424;2023-02-18T03:16:06;1.80;;;1.70;;
22146;SDS011;13074;48.298;14.424;2023-02-18T03:18:42;2.13;;;1.50;;
22146;SDS011;13074;48.298;14.424;2023-02-18T03:21:12;1.87;;;1.50;;
22146;SDS011;13074;48.298;14.424;2023-02-18T03:23:48;2.03;;;1.40;;
22146;SDS011;13074;48.298;14.424;2023-02-18T03:26:19;2.33;;;1.63;;
22146;SDS011;13074;48.298;14.424;2023-02-18T03:28:49;1.47;;;1.37;;
22146;SDS011;13074;48.298;14.424;2023-02-18T03:31:19;2.07;;;1.33;;
22146;SDS011;13074;48.298;14.424;2023-02-18T03:33:51;2.30;;;1.50;;
22146;SDS011;13074;48.298;14.424;2023-02-18T03:36:22;1.50;;;1.30;;
22146;SDS011;13074;48.298;14.424;2023-02-18T03:38:55;1.93;;;1.47;;
22146;SDS011;13074;48.298;14.424;2023-02-18T03:41:26;2.27;;;1.67;;
22146;SDS011;13074;48.298;14.424;2023-02-18T03:43:57;2.03;;;1.50;;
22146;SDS011;13074;48.298;14.424;2023-02-18T03:46:26;2.23;;;1.60;;
22146;SDS011;13074;48.298;14.424;2023-02-18T03:48:53;3.40;;;1.70;;
22146;SDS011;13074;48.298;14.424;2023-02-18T03:51:21;1.73;;;1.50;;
22146;SDS011;13074;48.298;14.424;2023-02-18T03:53:48;2.63;;;1.50;;
22146;SDS011;13074;48.298;14.424;2023-02-18T03:56:17;1.80;;;1.33;;
22146;SDS011;13074;48.298;14.424;2023-02-18T03:58:45;4.47;;;1.50;;
22146;SDS011;13074;48.298;14.424;2023-02-18T04:01:12;2.77;;;1.47;;
22146;SDS011;13074;48.298;14.424;2023-02-18T04:03:40;1.47;;;1.10;;
22146;SDS011;13074;48.298;14.424;2023-02-18T04:06:07;2.53;;;1.50;;
22146;SDS011;13074;48.298;14.424;2023-02-18T04:08:34;2.07;;;1.33;;
22146;SDS011;13074;48.298;14.424;2023-02-18T04:11:02;1.87;;;1.30;;
22146;SDS011;13074;48.298;14.424;2023-02-18T04:13:31;1.70;;;1.30;;
22146;SDS011;13074;48.298;14.424;2023-02-18T04:15:59;4.40;;;1.20;;
22146;SDS011;13074;48.298;14.424;2023-02-18T04:18:26;3.37;;;1.37;;
22146;SDS011;13074;48.298;14.424;2023-02-18T04:20:53;2.07;;;1.30;;
22146;SDS011;13074;48.298;14.424;2023-02-18T04:23:20;3.87;;;1.40;;
22146;SDS011;13074;48.298;14.424;2023-02-18T04:25:48;2.57;;;1.40;;
22146;SDS011;13074;48.298;14.424;2023-02-18T04:28:15;2.17;;;1.20;;
22146;SDS011;13074;48.298;14.424;2023-02-18T04:30:45;2.63;;;1.27;;
22146;SDS011;13074;48.298;14.424;2023-02-18T04:33:13;1.87;;;1.23;;
22146;SDS011;13074;48.298;14.424;2023-02-18T04:35:40;2.67;;;1.37;;
22146;SDS011;13074;48.298;14.424;2023-02-18T04:38:08;1.83;;;0.90;;
22146;SDS011;13074;48.298;14.424;2023-02-18T04:40:36;2.17;;;1.27;;
22146;SDS011;13074;48.298;14.424;2023-02-18T04:43:03;5.60;;;1.40;;
22146;SDS011;13074;48.298;14.424;2023-02-18T04:45:31;3.77;;;1.70;;
22146;SDS011;13074;48.298;14.424;2023-02-18T04:47:59;2.17;;;1.40;;
22146;SDS011;13074;48.298;14.424;2023-02-18T04:50:26;1.67;;;1.20;;
22146;SDS011;13074;48.298;14.424;2023-02-18T04:52:53;1.60;;;1.20;;
22146;SDS011;13074;48.298;14.424;2023-02-18T04:55:20;1.63;;;1.17;;
22146;SDS011;13074;48.298;14.424;2023-02-18T04:57:47;1.57;;;1.40;;
22146;SDS011;13074;48.298;14.424;2023-02-18T05:00:16;1.80;;;1.40;;
22146;SDS011;13074;48.298;14.424;2023-02-18T05:02:44;2.90;;;1.50;;
22146;SDS011;13074;48.298;14.424;2023-02-18T05:05:13;1.67;;;1.47;;
22146;SDS011;13074;48.298;14.424;2023-02-18T05:07:57;2.90;;;1.40;;
22146;SDS011;13074;48.298;14.424;2023-02-18T05:10:24;3.53;;;1.57;;
22146;SDS011;13074;48.298;14.424;2023-02-18T05:12:51;3.43;;;1.43;;
22146;SDS011;13074;48.298;14.424;2023-02-18T05:15:19;3.27;;;1.90;;
22146;SDS011;13074;48.298;14.424;2023-02-18T05:17:46;2.13;;;1.60;;
22146;SDS011;13074;48.298;14.424;2023-02-18T05:20:15;2.63;;;1.70;;
22146;SDS011;13074;48.298;14.424;2023-02-18T05:22:42;2.90;;;1.90;;
22146;SDS011;13074;48.298;14.424;2023-02-18T05:25:09;1.73;;;1.50;;
22146;SDS011;13074;48.298;14.424;2023-02-18T05:27:36;1.97;;;1.60;;
22146;SDS011;13074;48.298;14.424;2023-02-18T05:30:04;4.17;;;1.77;;
22146;SDS011;13074;48.298;14.424;2023-02-18T05:32:32;2.07;;;1.70;;
22146;SDS011;13074;48.298;14.424;2023-02-18T05:34:59;4.73;;;1.60;;
22146;SDS011;13074;48.298;14.424;2023-02-18T05:37:28;2.00;;;1.80;;
22146;SDS011;13074;48.298;14.424;2023-02-18T05:39:55;4.83;;;1.90;;
22146;SDS011;13074;48.298;14.424;2023-02-18T05:42:22;2.93;;;1.90;;
22146;SDS011;13074;48.298;14.424;2023-02-18T05:44:49;4.20;;;1.93;;
22146;SDS011;13074;48.298;14.424;2023-02-18T05:47:16;2.90;;;2.10;;
22146;SDS011;13074;48.298;14.424;2023-02-18T05:49:43;3.37;;;1.90;;
22146;SDS011;13074;48.298;14.424;2023-02-18T05:52:11;2.90;;;1.90;;
22146;SDS011;13074;48.298;14.424;2023-02-18T05:54:39;3.03;;;1.70;;
22146;SDS011;13074;48.298;14.424;2023-02-18T05:57:06;3.77;;;1.83;;
22146;SDS011;13074;48.298;14.424;2023-02-18T05:59:34;2.00;;;1.57;;
22146;SDS011;13074;48.298;14.424;2023-02-18T06:02:01;2.53;;;1.97;;
22146;SDS011;13074;48.298;14.424;2023-02-18T06:04:28;2.33;;;1.67;;
22146;SDS011;13074;48.298;14.424;2023-02-18T06:06:56;4.70;;;2.00;;
22146;SDS011;13074;48.298;14.424;2023-02-18T06:09:23;3.00;;;1.80;;
22146;SDS011;13074;48.298;14.424;2023-02-18T06:11:52;2.47;;;1.70;;
22146;SDS011;13074;48.298;14.424;2023-02-18T06:14:19;1.90;;;1.67;;
22146;SDS011;13074;48.298;14.424;2023-02-18T06:16:46;2.67;;;1.80;;
22146;SDS011;13074;48.298;14.424;2023-02-18T06:19:13;2.67;;;1.97;;
22146;SDS011;13074;48.298;14.424;2023-02-18T06:21:40;2.27;;;1.63;;
22146;SDS011;13074;48.298;14.424;2023-02-18T06:24:08;1.97;;;1.60;;
22146;SDS011;13074;48.298;14.424;2023-02-18T06:26:35;1.93;;;1.50;;
22146;SDS011;13074;48.298;14.424;2023-02-18T06:29:18;2.30;;;1.53;;
22146;SDS011;13074;48.298;14.424;2023-02-18T06:31:45;2.90;;;1.83;;
22146;SDS011;13074;48.298;14.424;2023-02-18T06:34:12;2.73;;;1.70;;
22146;SDS011;13074;48.298;14.424;2023-02-18T06:36:39;2.80;;;1.60;;
22146;SDS011;13074;48.298;14.424;2023-02-18T06:39:07;3.20;;;1.70;;
22146;SDS011;13074;48.298;14.424;2023-02-18T06:41:34;2.23;;;2.00;;
22146;SDS011;13074;48.298;14.424;2023-02-18T06:44:01;2.97;;;1.97;;
22146;SDS011;13074;48.298;14.424;2023-02-18T06:46:29;3.63;;;1.97;;
22146;SDS011;13074;48.298;14.424;2023-02-18T06:48:56;2.73;;;1.80;;
22146;SDS011;13074;48.298;14.424;2023-02-18T06:51:23;4.20;;;2.07;;
22146;SDS011;13074;48.298;14.424;2023-02-18T06:53:51;3.10;;;1.70;;
22146;SDS011;13074;48.298;14.424;2023-02-18T06:56:18;3.03;;;1.93;;
22146;SDS011;13074;48.298;14.424;2023-02-18T06:58:45;2.43;;;1.73;;
22146;SDS011;13074;48.298;14.424;2023-02-18T07:01:12;4.80;;;2.10;;
22146;SDS011;13074;48.298;14.424;2023-02-18T07:03:41;2.67;;;2.00;;
22146;SDS011;13074;48.298;14.424;2023-02-18T07:06:08;4.83;;;2.37;;
22146;SDS011;13074;48.298;14.424;2023-02-18T07:08:35;3.77;;;2.20;;
22146;SDS011;13074;48.298;14.424;2023-02-18T07:11:03;3.77;;;2.23;;
22146;SDS011;13074;48.298;14.424;2023-02-18T07:13:30;4.83;;;2.50;;
22146;SDS011;13074;48.298;14.424;2023-02-18T07:16:02;3.13;;;2.17;;
22146;SDS011;13074;48.298;14.424;2023-02-18T07:18:29;3.50;;;2.70;;
22146;SDS011;13074;48.298;14.424;2023-02-18T07:20:58;3.30;;;2.40;;
22146;SDS011;13074;48.298;14.424;2023-02-18T07:23:25;3.17;;;2.37;;
22146;SDS011;13074;48.298;14.424;2023-02-18T07:25:52;3.20;;;2.30;;
22146;SDS011;13074;48.298;14.424;2023-02-18T07:28:29;3.13;;;2.43;;
22146;SDS011;13074;48.298;14.424;2023-02-18T07:30:56;4.93;;;2.60;;
22146;SDS011;13074;48.298;14.424;2023-02-18T07:33:23;5.30;;;2.17;;
22146;SDS011;13074;48.298;14.424;2023-02-18T07:35:52;5.37;;;2.57;;
22146;SDS011;13074;48.298;14.424;2023-02-18T07:38:21;4.10;;;2.40;;
22146;SDS011;13074;48.298;14.424;2023-02-18T07:40:49;2.23;;;2.00;;
22146;SDS011;13074;48.298;14.424;2023-02-18T07:43:17;2.57;;;2.10;;
22146;SDS011;13074;48.298;14.424;2023-02-18T07:45:44;3.83;;;1.90;;
22146;SDS011;13074;48.298;14.424;2023-02-18T07:48:11;3.03;;;2.23;;
22146;SDS011;13074;48.298;14.424;2023-02-18T07:50:39;2.93;;;2.07;;
22146;SDS011;13074;48.298;14.424;2023-02-18T07:53:07;3.37;;;2.03;;
22146;SDS011;13074;48.298;14.424;2023-02-18T07:55:37;2.33;;;1.87;;
22146;SDS011;13074;48.298;14.424;2023-02-18T07:58:18;3.27;;;2.03;;
22146;SDS011;13074;48.298;14.424;2023-02-18T08:00:47;2.57;;;1.90;;
22146;SDS011;13074;48.298;14.424;2023-02-18T08:03:15;3.40;;;2.33;;
22146;SDS011;13074;48.298;14.424;2023-02-18T08:05:43;4.20;;;1.90;;
22146;SDS011;13074;48.298;14.424;2023-02-18T08:08:11;2.17;;;1.80;;
22146;SDS011;13074;48.298;14.424;2023-02-18T08:10:41;3.13;;;2.20;;
22146;SDS011;13074;48.298;14.424;2023-02-18T08:13:08;3.93;;;2.00;;
22146;SDS011;13074;48.298;14.424;2023-02-18T08:15:36;2.80;;;2.10;;
22146;SDS011;13074;48.298;14.424;2023-02-18T08:18:03;3.87;;;2.13;;
22146;SDS011;13074;48.298;14.424;2023-02-18T08:20:34;2.83;;;2.03;;
22146;SDS011;13074;48.298;14.424;2023-02-18T08:23:02;2.00;;;1.70;;
22146;SDS011;13074;48.298;14.424;2023-02-18T08:25:29;3.37;;;2.00;;
22146;SDS011;13074;48.298;14.424;2023-02-18T08:27:58;4.50;;;2.20;;
22146;SDS011;13074;48.298;14.424;2023-02-18T08:30:25;3.03;;;2.10;;
22146;SDS011;13074;48.298;14.424;2023-02-18T08:32:53;3.40;;;2.80;;
22146;SDS011;13074;48.298;14.424;2023-02-18T08:35:20;2.90;;;2.13;;
22146;SDS011;13074;48.298;14.424;2023-02-18T08:37:47;3.77;;;1.90;;
22146;SDS011;13074;48.298;14.424;2023-02-18T08:40:15;3.83;;;2.20;;
22146;SDS011;13074;48.298;14.424;2023-02-18T08:42:42;3.27;;;2.40;;
22146;SDS011;13074;48.298;14.424;2023-02-18T08:45:11;2.43;;;2.00;;
22146;SDS011;13074;48.298;14.424;2023-02-18T08:47:38;2.70;;;2.23;;
22146;SDS011;13074;48.298;14.424;2023-02-18T08:50:05;3.33;;;2.43;;
22146;SDS011;13074;48.298;14.424;2023-02-18T08:52:33;3.27;;;2.20;;
22146;SDS011;13074;48.298;14.424;2023-02-18T08:55:00;2.60;;;2.33;;
22146;SDS011;13074;48.298;14.424;2023-02-18T08:57:27;5.13;;;3.00;;
22146;SDS011;13074;48.298;14.424;2023-02-18T08:59:54;3.87;;;2.93;;
22146;SDS011;13074;48.298;14.424;2023-02-18T09:02:23;3.67;;;2.90;;
22146;SDS011;13074;48.298;14.424;2023-02-18T09:04:50;3.00;;;2.70;;
22146;SDS011;13074;48.298;14.424;2023-02-18T09:07:17;5.77;;;2.90;;
22146;SDS011;13074;48.298;14.424;2023-02-18T09:09:44;2.60;;;2.40;;
22146;SDS011;13074;48.298;14.424;2023-02-18T09:12:12;4.40;;;2.77;;
22146;SDS011;13074;48.298;14.424;2023-02-18T09:14:39;3.07;;;2.63;;
22146;SDS011;13074;48.298;14.424;2023-02-18T09:17:06;5.83;;;2.27;;
22146;SDS011;13074;48.298;14.424;2023-02-18T09:19:35;2.40;;;2.10;;
22146;SDS011;13074;48.298;14.424;2023-02-18T09:22:02;2.97;;;2.30;;
22146;SDS011;13074;48.298;14.424;2023-02-18T09:24:29;3.00;;;2.20;;
22146;SDS011;13074;48.298;14.424;2023-02-18T09:26:57;2.50;;;2.30;;
22146;SDS011;13074;48.298;14.424;2023-02-18T09:29:24;4.20;;;1.90;;
22146;SDS011;13074;48.298;14.424;2023-02-18T09:31:51;2.33;;;1.70;;
22146;SDS011;13074;48.298;14.424;2023-02-18T09:34:18;2.20;;;2.00;;
22146;SDS011;13074;48.298;14.424;2023-02-18T09:36:47;2.33;;;1.70;;
22146;SDS011;13074;48.298;14.424;2023-02-18T09:39:14;2.10;;;1.80;;
22146;SDS011;13074;48.298;14.424;2023-02-18T09:41:42;3.17;;;1.80;;
22146;SDS011;13074;48.298;14.424;2023-02-18T09:44:12;2.47;;;2.03;;
22146;SDS011;13074;48.298;14.424;2023-02-18T09:46:47;2.53;;;1.80;;
22146;SDS011;13074;48.298;14.424;2023-02-18T09:49:17;2.17;;;1.70;;
22146;SDS011;13074;48.298;14.424;2023-02-18T09:51:49;2.60;;;1.90;;
22146;SDS011;13074;48.298;14.424;2023-02-18T09:54:17;1.90;;;1.70;;
22146;SDS011;13074;48.298;14.424;2023-02-18T09:56:45;2.80;;;1.83;;
22146;SDS011;13074;48.298;14.424;2023-02-18T09:59:14;2.20;;;1.73;;
22146;SDS011;13074;48.298;14.424;2023-02-18T10:01:43;2.33;;;1.73;;
22146;SDS011;13074;48.298;14.424;2023-02-18T10:04:15;2.07;;;1.50;;
22146;SDS011;13074;48.298;14.424;2023-02-18T10:06:45;2.70;;;1.87;;
22146;SDS011;13074;48.298;14.424;2023-02-18T10:09:17;2.07;;;1.80;;
22146;SDS011;13074;48.298;14.424;2023-02-18T10:11:47;2.23;;;1.70;;
22146;SDS011;13074;48.298;14.424;2023-02-18T10:14:17;1.90;;;1.60;;
22146;SDS011;13074;48.298;14.424;2023-02-18T10:16:45;6.23;;;1.87;;
22146;SDS011;13074;48.298;14.424;2023-02-18T10:19:19;2.33;;;1.60;;
22146;SDS011;13074;48.298;14.424;2023-02-18T10:21:51;2.97;;;1.60;;
22146;SDS011;13074;48.298;14.424;2023-02-18T10:24:25;2.30;;;1.60;;
22146;SDS011;13074;48.298;14.424;2023-02-18T10:26:56;1.53;;;1.30;;
22146;SDS011;13074;48.298;14.424;2023-02-18T10:29:24;3.63;;;1.80;;
22146;SDS011;13074;48.298;14.424;2023-02-18T10:31:55;3.10;;;1.47;;
22146;SDS011;13074;48.298;14.424;2023-02-18T10:34:37;1.67;;;1.30;;
22146;SDS011;13074;48.298;14.424;2023-02-18T10:40:15;3.10;;;1.43;;
22146;SDS011;13074;48.298;14.424;2023-02-18T10:42:52;3.80;;;1.60;;
22146;SDS011;13074;48.298;14.424;2023-02-18T10:45:32;2.60;;;1.37;;
22146;SDS011;13074;48.298;14.424;2023-02-18T10:48:14;1.60;;;1.30;;
22146;SDS011;13074;48.298;14.424;2023-02-18T10:50:57;3.33;;;1.53;;
22146;SDS011;13074;48.298;14.424;2023-02-18T10:53:28;1.87;;;1.40;;
22146;SDS011;13074;48.298;14.424;2023-02-18T10:56:00;1.27;;;1.17;;
22146;SDS011;13074;48.298;14.424;2023-02-18T10:58:31;1.83;;;1.37;;
22146;SDS011;13074;48.298;14.424;2023-02-18T11:01:02;1.40;;;1.20;;
22146;SDS011;13074;48.298;14.424;2023-02-18T11:03:40;1.50;;;1.40;;
22146;SDS011;13074;48.298;14.424;2023-02-18T11:06:14;2.63;;;1.60;;
22146;SDS011;13074;48.298;14.424;2023-02-18T11:08:45;1.53;;;1.23;;
22146;SDS011;13074;48.298;14.424;2023-02-18T11:11:15;2.73;;;1.77;;
22146;SDS011;13074;48.298;14.424;2023-02-18T11:13:50;2.87;;;1.47;;
22146;SDS011;13074;48.298;14.424;2023-02-18T11:16:20;2.30;;;1.40;;
22146;SDS011;13074;48.298;14.424;2023-02-18T11:18:48;4.03;;;1.60;;
22146;SDS011;13074;48.298;14.424;2023-02-18T11:21:23;1.50;;;1.40;;
22146;SDS011;13074;48.298;14.424;2023-02-18T11:23:55;2.23;;;1.30;;
22146;SDS011;13074;48.298;14.424;2023-02-18T11:26:29;3.90;;;1.40;;
22146;SDS011;13074;48.298;14.424;2023-02-18T11:28:59;2.10;;;1.30;;
22146;SDS011;13074;48.298;14.424;2023-02-18T11:31:33;1.50;;;1.27;;
22146;SDS011;13074;48.298;14.424;2023-02-18T11:34:09;1.73;;;1.43;;
22146;SDS011;13074;48.298;14.424;2023-02-18T11:36:41;1.50;;;1.13;;
22146;SDS011;13074;48.298;14.424;2023-02-18T11:39:14;1.60;;;1.37;;
22146;SDS011;13074;48.298;14.424;2023-02-18T11:41:47;2.97;;;1.37;;
22146;SDS011;13074;48.298;14.424;2023-02-18T11:44:20;2.27;;;1.87;;
22146;SDS011;13074;48.298;14.424;2023-02-18T11:47:00;1.83;;;1.50;;
22146;SDS011;13074;48.298;14.424;2023-02-18T11:49:31;1.60;;;1.40;;
22146;SDS011;13074;48.298;14.424;2023-02-18T11:52:03;3.10;;;1.43;;
22146;SDS011;13074;48.298;14.424;2023-02-18T11:54:39;8.53;;;1.40;;
22146;SDS011;13074;48.298;14.424;2023-02-18T11:57:09;1.53;;;1.20;;
22146;SDS011;13074;48.298;14.424;2023-02-18T11:59:39;1.33;;;1.10;;
22146;SDS011;13074;48.298;14.424;2023-02-18T12:02:12;1.30;;;1.20;;
22146;SDS011;13074;48.298;14.424;2023-02-18T12:04:57;4.57;;;1.47;;
22146;SDS011;13074;48.298;14.424;2023-02-18T12:07:29;1.40;;;1.23;;
22146;SDS011;13074;48.298;14.424;2023-02-18T12:10:10;2.30;;;1.30;;
22146;SDS011;13074;48.298;14.424;2023-02-18T12:12:44;1.30;;;1.10;;
22146;SDS011;13074;48.298;14.424;2023-02-18T12:15:21;1.83;;;1.47;;
22146;SDS011;13074;48.298;14.424;2023-02-18T12:18:00;2.43;;;1.20;;
22146;SDS011;13074;48.298;14.424;2023-02-18T12:20:48;1.20;;;1.10;;
22146;SDS011;13074;48.298;14.424;2023-02-18T12:23:27;1.80;;;1.20;;
22146;SDS011;13074;48.298;14.424;2023-02-18T12:26:01;1.57;;;1.30;;
22146;SDS011;13074;48.298;14.424;2023-02-18T12:28:43;1.97;;;1.40;;
22146;SDS011;13074;48.298;14.424;2023-02-18T12:31:33;2.20;;;1.20;;
22146;SDS011;13074;48.298;14.424;2023-02-18T12:34:31;2.07;;;1.40;;
22146;SDS011;13074;48.298;14.424;2023-02-18T12:37:27;1.73;;;1.20;;
22146;SDS011;13074;48.298;14.424;2023-02-18T12:40:15;1.27;;;1.17;;
22146;SDS011;13074;48.298;14.424;2023-02-18T12:42:56;1.57;;;1.10;;
22146;SDS011;13074;48.298;14.424;2023-02-18T12:45:43;1.47;;;1.10;;
22146;SDS011;13074;48.298;14.424;2023-02-18T12:48:30;2.07;;;1.10;;
22146;SDS011;13074;48.298;14.424;2023-02-18T12:51:10;1.30;;;1.10;;
22146;SDS011;13074;48.298;14.424;2023-02-18T12:53:54;1.33;;;1.10;;
22146;SDS011;13074;48.298;14.424;2023-02-18T12:56:41;1.90;;;1.10;;
22146;SDS011;13074;48.298;14.424;2023-02-18T12:59:27;1.77;;;1.20;;
22146;SDS011;13074;48.298;14.424;2023-02-18T13:02:20;1.23;;;1.13;;
22146;SDS011;13074;48.298;14.424;2023-02-18T13:05:03;2.97;;;1.23;;
22146;SDS011;13074;48.298;14.424;2023-02-18T13:07:39;1.63;;;1.20;;
22146;SDS011;13074;48.298;14.424;2023-02-18T13:10:21;1.30;;;1.20;;
22146;SDS011;13074;48.298;14.424;2023-02-18T13:13:09;1.13;;;1.03;;
22146;SDS011;13074;48.298;14.424;2023-02-18T13:15:40;1.20;;;1.07;;
22146;SDS011;13074;48.298;14.424;2023-02-18T13:18:11;1.37;;;1.10;;
22146;SDS011;13074;48.298;14.424;2023-02-18T13:20:44;1.30;;;0.90;;
22146;SDS011;13074;48.298;14.424;2023-02-18T13:23:18;2.03;;;1.13;;
22146;SDS011;13074;48.298;14.424;2023-02-18T13:25:48;3.60;;;1.30;;
22146;SDS011;13074;48.298;14.424;2023-02-18T13:28:22;2.30;;;1.00;;
22146;SDS011;13074;48.298;14.424;2023-02-18T13:30:58;1.07;;;0.97;;
22146;SDS011;13074;48.298;14.424;2023-02-18T13:33:37;2.00;;;1.20;;
22146;SDS011;13074;48.298;14.424;2023-02-18T13:36:11;2.03;;;1.07;;
22146;SDS011;13074;48.298;14.424;2023-02-18T13:38:49;3.27;;;1.10;;
22146;SDS011;13074;48.298;14.424;2023-02-18T13:41:28;1.17;;;1.00;;
22146;SDS011;13074;48.298;14.424;2023-02-18T13:44:00;1.63;;;1.17;;
22146;SDS011;13074;48.298;14.424;2023-02-18T13:46:27;1.40;;;0.90;;
22146;SDS011;13074;48.298;14.424;2023-02-18T13:49:03;0.90;;;0.90;;
22146;SDS011;13074;48.298;14.424;2023-02-18T13:51:36;1.10;;;1.00;;
22146;SDS011;13074;48.298;14.424;2023-02-18T13:54:10;2.47;;;1.23;;
22146;SDS011;13074;48.298;14.424;2023-02-18T13:56:50;1.37;;;1.20;;
22146;SDS011;13074;48.298;14.424;2023-02-18T13:59:21;1.20;;;1.10;;
22146;SDS011;13074;48.298;14.424;2023-02-18T14:01:53;1.37;;;1.00;;
22146;SDS011;13074;48.298;14.424;2023-02-18T14:10:30;1.13;;;0.90;;
22146;SDS011;13074;48.298;14.424;2023-02-18T14:15:50;1.60;;;1.10;;
22146;SDS011;13074;48.298;14.424;2023-02-18T14:18:24;1.23;;;1.10;;
22146;SDS011;13074;48.298;14.424;2023-02-18T14:21:21;0.90;;;0.90;;
22146;SDS011;13074;48.298;14.424;2023-02-18T14:24:02;5.23;;;1.17;;
22146;SDS011;13074;48.298;14.424;2023-02-18T14:26:36;2.20;;;1.03;;
22146;SDS011;13074;48.298;14.424;2023-02-18T14:29:12;3.10;;;1.00;;
22146;SDS011;13074;48.298;14.424;2023-02-18T14:31:45;1.50;;;1.10;;
22146;SDS011;13074;48.298;14.424;2023-02-18T14:34:22;1.00;;;0.90;;
22146;SDS011;13074;48.298;14.424;2023-02-18T14:40:14;0.83;;;0.80;;
22146;SDS011;13074;48.298;14.424;2023-02-18T14:43:00;1.13;;;0.93;;
22146;SDS011;13074;48.298;14.424;2023-02-18T14:45:41;1.10;;;1.00;;
22146;SDS011;13074;48.298;14.424;2023-02-18T14:48:28;1.27;;;1.00;;
22146;SDS011;13074;48.298;14.424;2023-02-18T14:51:19;1.10;;;0.97;;
22146;SDS011;13074;48.298;14.424;2023-02-18T14:53:49;1.63;;;1.17;;
22146;SDS011;13074;48.298;14.424;2023-02-18T14:56:18;1.40;;;1.10;;
22146;SDS011;13074;48.298;14.424;2023-02-18T14:58:47;1.07;;;1.00;;
22146;SDS011;13074;48.298;14.424;2023-02-18T15:01:19;2.47;;;1.07;;
22146;SDS011;13074;48.298;14.424;2023-02-18T15:03:50;0.80;;;0.80;;
22146;SDS011;13074;48.298;14.424;2023-02-18T15:06:22;1.20;;;0.90;;
22146;SDS011;13074;48.298;14.424;2023-02-18T15:08:51;1.07;;;0.93;;
22146;SDS011;13074;48.298;14.424;2023-02-18T15:11:20;1.20;;;0.90;;
22146;SDS011;13074;48.298;14.424;2023-02-18T15:13:50;2.20;;;0.93;;
22146;SDS011;13074;48.298;14.424;2023-02-18T15:16:19;1.03;;;0.93;;
22146;SDS011;13074;48.298;14.424;2023-02-18T15:18:52;0.97;;;0.80;;
22146;SDS011;13074;48.298;14.424;2023-02-18T15:21:23;1.63;;;1.20;;
22146;SDS011;13074;48.298;14.424;2023-02-18T15:23:54;3.97;;;1.07;;
22146;SDS011;13074;48.298;14.424;2023-02-18T15:26:26;3.07;;;1.00;;